Time;durP1;ratioP1;P1;durP2;ratioP2;P2;SDS_P1;SDS_P2;PMS_P1;PMS_P2;Temp;Humidity;BMP_temperature;BMP_pressure;BME280_temperature;BME280_humidity;BME280_pressure;Samples;Min_cycle;Max_cycle;Signal;HPM_P1;HPM_P2
2021/07/06 00:02:50;;;;;;;;;18.00;16.00;;;;;;;;8846127;40;10503;-64
2021/07/06 00:08:52;;;;;;;;;18.75;15.00;;;;;;;;8845919;40;10663;-64
2021/07/06 00:14:54;;;;;;;;;16.00;13.75;;;;;;;;8835808;40;10546;-64
2021/07/06 00:20:58;;;;;;;;;18.00;15.25;;;;;;;;8845836;40;10483;-65
2021/07/06 00:27:01;;;;;;;;;11.00;10.00;;;;;;;;8845516;40;10738;-65
2021/07/06 00:33:03;;;;;;;;;17.50;15.75;;;;;;;;8836434;40;10637;-65
2021/07/06 00:39:05;;;;;;;;;17.75;14.50;;;;;;;;8845054;40;10759;-65
2021/07/06 00:45:09;;;;;;;;;15.00;14.00;;;;;;;;8844592;40;10534;-65
2021/07/06 00:51:11;;;;;;;;;12.50;12.50;;;;;;;;8835238;40;10574;-64
2021/07/06 00:57:13;;;;;;;;;16.50;15.00;;;;;;;;8845095;40;10824;-65
2021/07/06 01:03:15;;;;;;;;;15.25;11.25;;;;;;;;8845393;40;10601;-65
2021/07/06 01:09:18;;;;;;;;;12.75;12.50;;;;;;;;8845177;40;10559;-64
2021/07/06 01:15:25;;;;;;;;;16.75;16.50;;;;;;;;8845077;40;11415;-63
2021/07/06 01:21:27;;;;;;;;;19.75;17.75;;;;;;;;8848468;40;10567;-65
2021/07/06 01:27:29;;;;;;;;;17.50;16.00;;;;;;;;8847490;40;11137;-65
2021/07/06 01:33:33;;;;;;;;;14.50;14.25;;;;;;;;8848047;40;10428;-64
2021/07/06 01:39:35;;;;;;;;;20.00;16.50;;;;;;;;8848194;40;10681;-64
2021/07/06 01:45:38;;;;;;;;;18.00;14.00;;;;;;;;8847760;40;10817;-63
2021/07/06 01:51:41;;;;;;;;;13.50;12.75;;;;;;;;8849569;40;10615;-64
2021/07/06 01:57:44;;;;;;;;;16.75;15.50;;;;;;;;8848985;40;10573;-66
2021/07/06 02:03:50;;;;;;;;;16.50;14.50;;;;;;;;8847119;40;11685;-64
2021/07/06 02:09:52;;;;;;;;;8.25;7.75;;;;;;;;8848108;40;11408;-64
2021/07/06 02:15:56;;;;;;;;;15.00;13.50;;;;;;;;8846778;40;11532;-64
2021/07/06 02:21:58;;;;;;;;;15.75;15.00;;;;;;;;8848392;40;10792;-64
2021/07/06 02:28:00;;;;;;;;;17.33;16.00;;;;;;;;8839388;40;10357;-66
2021/07/06 02:34:01;;;;;;;;;17.00;14.67;;;;;;;;8828348;40;10640;-65
2021/07/06 02:40:05;;;;;;;;;17.75;14.50;;;;;;;;8822471;40;11260;-65
2021/07/06 02:46:07;;;;;;;;;15.75;15.75;;;;;;;;8821806;40;10786;-66
2021/07/06 02:52:09;;;;;;;;;15.00;15.00;;;;;;;;8823743;40;10849;-64
2021/07/06 02:58:12;;;;;;;;;15.33;15.33;;;;;;;;8822851;40;10314;-65
2021/07/06 03:04:14;;;;;;;;;15.25;14.00;;;;;;;;8823541;40;10604;-65
2021/07/06 03:10:19;;;;;;;;;16.75;15.50;;;;;;;;8823020;40;10674;-64
2021/07/06 03:16:21;;;;;;;;;16.50;15.25;;;;;;;;8822611;40;11461;-65
2021/07/06 03:22:23;;;;;;;;;15.00;14.00;;;;;;;;8842336;40;10596;-65
2021/07/06 03:28:25;;;;;;;;;16.50;14.75;;;;;;;;8845516;40;10724;-64
2021/07/06 03:34:27;;;;;;;;;20.25;17.50;;;;;;;;8845832;40;10564;-65
2021/07/06 03:40:29;;;;;;;;;21.00;21.00;;;;;;;;8844923;40;10434;-64
2021/07/06 03:46:31;;;;;;;;;18.50;18.25;;;;;;;;8845539;40;10699;-65
2021/07/06 03:52:33;;;;;;;;;26.75;22.00;;;;;;;;8837428;40;10628;-64
2021/07/06 03:58:35;;;;;;;;;22.50;20.50;;;;;;;;8839293;40;10651;-65
2021/07/06 04:04:37;;;;;;;;;19.75;19.25;;;;;;;;9917410;22;11713;-61
2021/07/06 04:10:39;;;;;;;;;24.25;22.75;;;;;;;;8827963;40;11191;-60
2021/07/06 04:16:41;;;;;;;;;22.00;19.25;;;;;;;;8843259;40;10821;-59
2021/07/06 04:22:44;;;;;;;;;21.25;19.00;;;;;;;;8836731;40;10729;-59
2021/07/06 04:28:47;;;;;;;;;22.50;20.25;;;;;;;;8840968;40;11245;-59
2021/07/06 04:34:49;;;;;;;;;22.25;21.25;;;;;;;;8848315;40;10461;-61
2021/07/06 04:40:51;;;;;;;;;19.00;18.50;;;;;;;;8843391;40;10482;-60
2021/07/06 04:46:53;;;;;;;;;21.00;20.50;;;;;;;;8825728;40;10487;-60
2021/07/06 04:52:56;;;;;;;;;19.00;18.25;;;;;;;;8824941;40;10347;-61
2021/07/06 04:58:58;;;;;;;;;19.75;17.50;;;;;;;;8828696;40;10331;-60
2021/07/06 05:05:00;;;;;;;;;20.25;19.00;;;;;;;;8828259;40;10309;-60
2021/07/06 05:11:02;;;;;;;;;22.50;19.00;;;;;;;;8835501;40;10234;-62
2021/07/06 05:17:05;;;;;;;;;16.75;16.75;;;;;;;;8832299;40;10323;-61
2021/07/06 05:23:07;;;;;;;;;15.50;13.50;;;;;;;;8826990;40;10305;-60
2021/07/06 05:29:09;;;;;;;;;14.25;13.75;;;;;;;;8849088;40;10133;-62
2021/07/06 05:35:12;;;;;;;;;18.25;15.00;;;;;;;;8840828;40;10333;-62
2021/07/06 05:41:15;;;;;;;;;16.00;16.00;;;;;;;;8852231;40;10320;-60
2021/07/06 05:47:16;;;;;;;;;14.00;14.00;;;;;;;;8833566;40;10438;-60
2021/07/06 05:53:19;;;;;;;;;13.50;12.00;;;;;;;;8836778;40;10503;-60
2021/07/06 05:59:22;;;;;;;;;19.00;15.00;;;;;;;;8847932;40;10497;-63
2021/07/06 06:05:24;;;;;;;;;16.50;14.00;;;;;;;;8841596;40;10513;-61
2021/07/06 06:11:30;;;;;;;;;17.75;17.75;;;;;;;;8845632;40;10502;-62
2021/07/06 06:17:32;;;;;;;;;25.50;18.25;;;;;;;;8845934;40;10337;-62
2021/07/06 06:23:34;;;;;;;;;21.75;19.75;;;;;;;;8843095;40;10339;-60
2021/07/06 06:29:36;;;;;;;;;15.50;15.50;;;;;;;;8846795;40;10691;-61
2021/07/06 06:35:40;;;;;;;;;19.25;17.75;;;;;;;;8836417;40;10456;-64
2021/07/06 06:41:42;;;;;;;;;18.25;16.50;;;;;;;;8829657;40;10514;-61
2021/07/06 06:47:44;;;;;;;;;16.00;15.75;;;;;;;;8843093;40;10520;-62
2021/07/06 06:53:46;;;;;;;;;17.25;15.00;;;;;;;;8835745;40;10333;-63
2021/07/06 06:59:51;;;;;;;;;11.75;10.00;;;;;;;;8838259;40;10221;-62
2021/07/06 07:05:53;;;;;;;;;13.25;13.25;;;;;;;;8841096;40;10376;-62
2021/07/06 07:11:55;;;;;;;;;16.25;14.25;;;;;;;;8838767;40;10517;-62
2021/07/06 07:17:57;;;;;;;;;12.00;12.00;;;;;;;;8839212;40;10344;-62
2021/07/06 07:23:59;;;;;;;;;11.50;11.50;;;;;;;;8835705;40;10896;-62
2021/07/06 07:30:01;;;;;;;;;11.50;11.50;;;;;;;;8841859;40;10757;-62
2021/07/06 07:36:03;;;;;;;;;12.00;12.00;;;;;;;;8843347;40;10491;-62
2021/07/06 07:42:05;;;;;;;;;12.25;12.25;;;;;;;;8837039;40;10311;-62
2021/07/06 07:48:07;;;;;;;;;12.50;12.25;;;;;;;;8842287;40;10319;-62
2021/07/06 07:54:09;;;;;;;;;14.25;12.00;;;;;;;;8839271;40;10242;-62
2021/07/06 08:00:12;;;;;;;;;9.25;9.25;;;;;;;;8832608;40;10194;-62
2021/07/06 08:06:19;;;;;;;;;15.75;12.00;;;;;;;;8836584;40;10303;-62
2021/07/06 08:12:22;;;;;;;;;12.00;12.00;;;;;;;;8837447;40;10476;-63
2021/07/06 08:18:24;;;;;;;;;12.00;12.00;;;;;;;;8839894;40;10308;-61
2021/07/06 08:24:26;;;;;;;;;6.00;6.00;;;;;;;;8839786;40;10511;-63
2021/07/06 08:30:28;;;;;;;;;12.50;10.75;;;;;;;;8841920;40;10194;-62
2021/07/06 08:36:30;;;;;;;;;18.00;16.50;;;;;;;;8836567;40;10536;-61
2021/07/06 08:42:33;;;;;;;;;14.00;14.00;;;;;;;;8841190;40;10489;-60
2021/07/06 08:48:35;;;;;;;;;16.50;15.25;;;;;;;;8835946;40;10556;-61
2021/07/06 08:54:37;;;;;;;;;17.75;16.50;;;;;;;;8840479;40;10431;-62
2021/07/06 09:00:39;;;;;;;;;14.50;14.25;;;;;;;;8834735;40;10630;-62
2021/07/06 09:06:56;;;;;;;;;14.00;11.00;;;;;;;;8827706;40;10270;-63
2021/07/06 09:12:59;;;;;;;;;12.00;12.00;;;;;;;;8836220;40;10498;-62
2021/07/06 09:19:19;;;;;;;;;18.75;17.00;;;;;;;;8833558;40;10565;-62
2021/07/06 09:25:26;;;;;;;;;16.75;13.50;;;;;;;;8826458;40;10541;-61
2021/07/06 09:31:32;;;;;;;;;15.00;15.00;;;;;;;;8834830;40;10858;-61
2021/07/06 09:37:54;;;;;;;;;19.25;15.00;;;;;;;;8832623;40;11156;-62
2021/07/06 09:44:16;;;;;;;;;14.25;14.25;;;;;;;;8827955;40;10488;-62
2021/07/06 09:50:18;;;;;;;;;17.75;15.75;;;;;;;;8824683;40;11052;-63
2021/07/06 09:56:24;;;;;;;;;13.75;12.50;;;;;;;;8838423;40;10336;-62
2021/07/06 10:02:28;;;;;;;;;15.50;15.50;;;;;;;;8837138;40;10351;-62
2021/07/06 10:08:30;;;;;;;;;16.75;16.75;;;;;;;;8839275;40;10375;-62
2021/07/06 10:14:32;;;;;;;;;13.25;13.00;;;;;;;;8835836;40;10419;-62
2021/07/06 10:20:37;;;;;;;;;18.25;16.00;;;;;;;;8836520;40;10862;-62
2021/07/06 10:26:40;;;;;;;;;12.50;12.50;;;;;;;;8832752;40;10387;-62
2021/07/06 10:32:45;;;;;;;;;18.50;17.50;;;;;;;;8842589;40;10434;-62
2021/07/06 10:38:56;;;;;;;;;16.25;16.25;;;;;;;;8839597;40;10613;-63
2021/07/06 10:45:21;;;;;;;;;13.75;13.00;;;;;;;;8841603;40;10521;-63
2021/07/06 10:51:36;;;;;;;;;14.25;13.00;;;;;;;;8840218;40;10250;-62
2021/07/06 10:57:48;;;;;;;;;16.25;15.75;;;;;;;;8840772;40;10540;-61
2021/07/06 11:03:51;;;;;;;;;17.50;14.75;;;;;;;;8831979;40;10362;-63
2021/07/06 11:09:59;;;;;;;;;16.25;12.25;;;;;;;;8841274;40;10375;-62
2021/07/06 11:16:03;;;;;;;;;15.50;13.50;;;;;;;;8843544;40;10427;-62
2021/07/06 11:22:09;;;;;;;;;15.50;14.75;;;;;;;;8835778;40;10606;-63
2021/07/06 11:28:18;;;;;;;;;9.25;9.25;;;;;;;;8844404;40;10144;-62
2021/07/06 11:34:20;;;;;;;;;13.25;12.25;;;;;;;;8827595;40;10334;-62
2021/07/06 11:40:22;;;;;;;;;14.00;14.00;;;;;;;;8846698;40;10293;-63
2021/07/06 11:46:26;;;;;;;;;10.50;8.75;;;;;;;;8847846;40;10218;-61
2021/07/06 11:52:28;;;;;;;;;16.75;16.75;;;;;;;;8845820;40;11442;-62
2021/07/06 11:58:32;;;;;;;;;16.50;16.00;;;;;;;;8829434;40;10324;-61
2021/07/06 12:04:35;;;;;;;;;14.75;14.00;;;;;;;;8821118;40;10405;-62
2021/07/06 12:11:02;;;;;;;;;12.25;12.25;;;;;;;;8822796;40;10321;-62
2021/07/06 12:17:04;;;;;;;;;14.50;13.25;;;;;;;;8840984;40;10499;-63
2021/07/06 12:23:06;;;;;;;;;14.50;14.50;;;;;;;;8846170;40;10505;-63
2021/07/06 12:29:09;;;;;;;;;13.00;12.00;;;;;;;;8846435;40;11309;-62
2021/07/06 12:35:18;;;;;;;;;14.00;12.75;;;;;;;;8845663;40;10349;-65
2021/07/06 12:41:20;;;;;;;;;16.00;13.00;;;;;;;;8834756;40;10360;-63
2021/07/06 12:47:26;;;;;;;;;14.00;13.25;;;;;;;;8821554;40;10385;-63
2021/07/06 12:53:28;;;;;;;;;10.75;10.75;;;;;;;;8820530;40;10294;-63
2021/07/06 12:59:31;;;;;;;;;12.25;11.25;;;;;;;;8822059;40;10390;-62
2021/07/06 13:05:38;;;;;;;;;14.00;14.00;;;;;;;;8820922;40;10382;-63
2021/07/06 13:11:40;;;;;;;;;17.25;17.25;;;;;;;;8824134;40;10376;-64
2021/07/06 13:17:46;;;;;;;;;16.25;15.00;;;;;;;;8849045;40;10327;-62
2021/07/06 13:23:49;;;;;;;;;16.00;15.50;;;;;;;;8852239;40;10372;-63
2021/07/06 13:29:51;;;;;;;;;16.75;16.75;;;;;;;;8836108;40;10226;-62
2021/07/06 13:35:56;;;;;;;;;16.25;14.75;;;;;;;;8846651;40;10506;-65
2021/07/06 13:41:58;;;;;;;;;14.00;13.75;;;;;;;;8835402;40;10361;-63
2021/07/06 13:48:00;;;;;;;;;16.25;16.25;;;;;;;;8823352;40;10297;-62
2021/07/06 13:54:07;;;;;;;;;15.25;15.25;;;;;;;;8815824;40;10301;-63
2021/07/06 14:00:10;;;;;;;;;15.00;14.75;;;;;;;;8842064;40;10271;-64
2021/07/06 14:06:19;;;;;;;;;9.75;9.50;;;;;;;;8852477;40;10213;-63
2021/07/06 14:12:21;;;;;;;;;14.75;13.25;;;;;;;;8853148;40;10305;-63
2021/07/06 14:18:23;;;;;;;;;16.75;16.75;;;;;;;;8843975;40;10314;-64
2021/07/06 14:24:25;;;;;;;;;18.00;16.50;;;;;;;;8826815;40;10838;-63
2021/07/06 14:30:29;;;;;;;;;17.00;16.00;;;;;;;;8827266;40;10739;-62
2021/07/06 14:36:31;;;;;;;;;14.25;14.25;;;;;;;;8827427;40;10267;-63
2021/07/06 14:42:34;;;;;;;;;16.50;16.50;;;;;;;;8816523;40;10562;-63
2021/07/06 14:48:36;;;;;;;;;20.00;18.75;;;;;;;;8827022;40;10424;-62
2021/07/06 14:54:38;;;;;;;;;14.75;13.00;;;;;;;;8826152;40;10385;-63
2021/07/06 15:00:40;;;;;;;;;20.25;16.75;;;;;;;;8841717;40;10544;-62
2021/07/06 15:06:42;;;;;;;;;16.75;16.25;;;;;;;;8848760;40;10375;-63
2021/07/06 15:12:50;;;;;;;;;16.25;16.00;;;;;;;;8848134;40;10287;-62
2021/07/06 15:18:53;;;;;;;;;15.25;15.25;;;;;;;;8857187;40;10345;-63
2021/07/06 15:24:55;;;;;;;;;21.50;20.00;;;;;;;;8859543;40;10937;-63
2021/07/06 15:30:57;;;;;;;;;16.00;16.00;;;;;;;;8839475;40;10279;-62
2021/07/06 15:36:59;;;;;;;;;21.50;21.50;;;;;;;;8848229;40;10534;-63
2021/07/06 15:43:02;;;;;;;;;20.25;19.00;;;;;;;;8848853;40;10404;-62
2021/07/06 15:49:04;;;;;;;;;16.75;15.00;;;;;;;;8848002;40;10348;-64
2021/07/06 15:55:07;;;;;;;;;22.00;19.25;;;;;;;;8847744;40;10438;-62
2021/07/06 16:01:09;;;;;;;;;19.50;18.50;;;;;;;;8846986;40;10543;-62
2021/07/06 16:07:11;;;;;;;;;11.75;11.00;;;;;;;;8824370;40;10375;-62
2021/07/06 16:13:13;;;;;;;;;17.00;16.00;;;;;;;;8823743;40;10300;-62
2021/07/06 16:19:15;;;;;;;;;14.25;12.75;;;;;;;;8822893;40;10379;-63
2021/07/06 16:25:18;;;;;;;;;13.25;13.25;;;;;;;;8825196;40;10290;-61
2021/07/06 16:31:20;;;;;;;;;12.00;12.00;;;;;;;;8837128;40;10273;-63
2021/07/06 16:37:23;;;;;;;;;14.00;13.00;;;;;;;;8847118;40;10360;-62
2021/07/06 16:43:25;;;;;;;;;15.00;13.50;;;;;;;;8846622;40;10398;-62
2021/07/06 16:49:27;;;;;;;;;11.50;11.50;;;;;;;;8846205;40;10224;-61
2021/07/06 17:59:37;;;;;;;;;16.75;16.75;;;;;;;;8768746;40;10411;-61
2021/07/06 18:05:39;;;;;;;;;16.50;15.50;;;;;;;;8814808;40;10349;-62
2021/07/06 18:11:42;;;;;;;;;18.50;18.50;;;;;;;;8824750;40;10410;-61
2021/07/06 18:17:46;;;;;;;;;16.75;16.75;;;;;;;;8823742;40;10299;-63
2021/07/06 18:23:48;;;;;;;;;15.75;15.50;;;;;;;;8824221;40;10530;-63
2021/07/06 18:29:49;;;;;;;;;16.25;16.25;;;;;;;;8824043;40;10281;-63
2021/07/06 18:35:52;;;;;;;;;15.00;14.50;;;;;;;;8823982;40;11190;-62
2021/07/06 18:41:54;;;;;;;;;20.25;15.00;;;;;;;;8823195;40;10572;-62
2021/07/06 18:47:56;;;;;;;;;15.00;15.00;;;;;;;;8833519;40;10239;-61
2021/07/06 18:54:11;;;;;;;;;18.75;17.75;;;;;;;;8849616;40;10402;-61
2021/07/06 19:00:13;;;;;;;;;14.75;14.75;;;;;;;;8848462;40;10383;-62
2021/07/06 19:06:15;;;;;;;;;22.75;18.50;;;;;;;;8836918;40;10629;-62
2021/07/06 19:12:17;;;;;;;;;20.25;18.50;;;;;;;;8825168;40;10502;-62
2021/07/06 19:18:19;;;;;;;;;21.00;20.75;;;;;;;;8846110;40;11129;-61
2021/07/06 19:24:40;;;;;;;;;20.25;18.50;;;;;;;;8846226;40;10582;-62
2021/07/06 19:37:04;;;;;;;;;20.75;18.25;;;;;;;;8845017;40;10354;-61
2021/07/06 19:43:06;;;;;;;;;17.50;14.50;;;;;;;;8846546;40;10735;-62
2021/07/06 19:49:10;;;;;;;;;21.00;20.50;;;;;;;;8845970;40;10908;-62
2021/07/06 19:55:14;;;;;;;;;17.75;16.25;;;;;;;;8847272;40;10340;-62
2021/07/06 20:01:15;;;;;;;;;16.75;16.75;;;;;;;;8845925;40;10430;-61
2021/07/06 20:07:21;;;;;;;;;24.25;21.75;;;;;;;;8845360;40;10341;-63
2021/07/06 20:13:24;;;;;;;;;18.25;18.00;;;;;;;;8841082;40;10386;-62
2021/07/06 20:19:26;;;;;;;;;20.50;19.25;;;;;;;;8821266;40;10271;-62
2021/07/06 20:25:28;;;;;;;;;20.25;18.50;;;;;;;;8821030;40;10528;-63
2021/07/06 20:31:30;;;;;;;;;20.50;20.50;;;;;;;;8821532;40;10364;-63
2021/07/06 20:37:32;;;;;;;;;21.75;20.75;;;;;;;;8821425;40;10353;-62
2021/07/06 20:43:34;;;;;;;;;23.25;21.25;;;;;;;;8821079;40;10513;-61
2021/07/06 20:49:36;;;;;;;;;25.00;22.50;;;;;;;;8840321;40;10689;-61
2021/07/06 20:55:38;;;;;;;;;29.75;25.25;;;;;;;;8844871;40;10336;-62
2021/07/06 21:01:40;;;;;;;;;19.75;19.75;;;;;;;;8834983;40;10628;-61
2021/07/06 21:07:42;;;;;;;;;22.50;22.50;;;;;;;;8846086;40;10971;-61
2021/07/06 21:13:45;;;;;;;;;25.00;21.25;;;;;;;;8844556;40;10589;-61
2021/07/06 21:19:46;;;;;;;;;21.75;21.75;;;;;;;;8844598;40;10641;-62
2021/07/06 21:25:48;;;;;;;;;26.25;24.75;;;;;;;;8842500;40;10319;-63
2021/07/06 21:31:50;;;;;;;;;21.75;19.25;;;;;;;;8830665;40;10553;-62
2021/07/06 21:37:52;;;;;;;;;21.00;18.50;;;;;;;;8847517;40;10423;-62
2021/07/06 21:43:54;;;;;;;;;18.50;18.00;;;;;;;;8842984;40;10344;-60
2021/07/06 21:49:56;;;;;;;;;20.75;20.75;;;;;;;;8849022;40;11103;-61
2021/07/06 21:55:58;;;;;;;;;20.00;17.00;;;;;;;;8848709;40;10319;-63
2021/07/06 22:02:00;;;;;;;;;20.75;20.75;;;;;;;;8848605;40;10390;-61
2021/07/06 22:08:04;;;;;;;;;22.50;21.25;;;;;;;;8847817;40;10321;-60
2021/07/06 22:14:06;;;;;;;;;23.25;21.25;;;;;;;;8848898;40;11194;-62
2021/07/06 22:20:09;;;;;;;;;18.00;18.00;;;;;;;;8848237;40;10441;-61
2021/07/06 22:26:11;;;;;;;;;19.75;18.25;;;;;;;;8847986;40;10373;-61
2021/07/06 22:32:14;;;;;;;;;20.00;20.00;;;;;;;;8847892;40;10279;-61
2021/07/06 22:38:16;;;;;;;;;25.75;22.25;;;;;;;;8847376;40;10609;-61
2021/07/06 22:44:19;;;;;;;;;20.00;18.50;;;;;;;;8847183;40;10324;-60
2021/07/06 22:50:21;;;;;;;;;21.25;21.25;;;;;;;;8836217;40;10556;-61
2021/07/06 22:56:23;;;;;;;;;21.75;18.50;;;;;;;;8830634;40;10466;-61
2021/07/06 23:02:25;;;;;;;;;24.00;20.75;;;;;;;;8847043;40;10546;-61
2021/07/06 23:08:27;;;;;;;;;19.25;19.25;;;;;;;;8847036;40;10571;-61
2021/07/06 23:14:29;;;;;;;;;24.75;19.75;;;;;;;;8846673;40;10298;-61
2021/07/06 23:20:34;;;;;;;;;19.50;18.50;;;;;;;;8846308;40;10515;-62
2021/07/06 23:26:36;;;;;;;;;18.75;17.25;;;;;;;;8845593;40;10593;-60
2021/07/06 23:32:38;;;;;;;;;19.25;18.50;;;;;;;;8820992;40;11258;-62
2021/07/06 23:38:40;;;;;;;;;21.50;20.50;;;;;;;;8821931;40;10434;-63
2021/07/06 23:44:42;;;;;;;;;23.25;21.00;;;;;;;;8822088;40;10535;-61
2021/07/06 23:50:44;;;;;;;;;20.00;20.00;;;;;;;;8821756;40;11838;-61
2021/07/06 23:56:46;;;;;;;;;24.00;23.00;;;;;;;;8823670;40;10416;-60
